Latest Coastal Weather Observations for Ballina

IDN60701

Issued at 1:25 pm EST Friday 25 April 2014 (issued every 10 minutes, with the page automatically refreshed every 10 minutes)

About coastal observations | Map of coastal stations | Coastal observations for NSW | Marine services | Other Formats
Station Details ID: 058198 Name: BALLINA AIRPORT AWS Lat: -28.84 Lon: 153.56 Height: 1.3 m
Data from the previous 72 hours. | See also: Recent months at Ballina
Date/Time
EST
Temp

°C
Wind Pressure Rain
since 9am
mm
Weather Cloud Vis
km
Sea
Height
m
Swell
Dir
 
Speed
knots
Gust
knots
hPa Trend Height
m
Period
s
Dir
25/01:00pm 25.4 S 9 11 1017.8 - 0.0 - Partly cloudy 10 - - - -
25/12:30pm 25.1 SSE 10 11 1018.0 - 0.0 - - 10 - - - -
25/12:00pm 26.0 E 8 12 1018.3 - 0.0 - - 10 - - - -
25/11:30am 25.6 E 8 11 1018.6 - 0.0 - - 10 - - - -
25/11:00am 24.6 ENE 9 12 1019.0 - 0.0 - Partly cloudy 10 - - - -
25/10:30am 26.0 ENE 6 10 1019.2 - 0.0 - Partly cloudy 10 - - - -
25/10:00am 25.9 NNE 5 7 1019.2 - 0.0 - - 10 - - - -
25/09:30am 24.6 NNW 4 7 1019.3 - 0.0 - - 10 - - - -
25/09:00am 23.2 CALM 0 3 1019.3 - 0.0 - - 10 - - - -
25/08:30am 20.8 NW 2 5 1019.2 - 0.0 - - 10 - - - -
25/08:00am 18.6 CALM 0 0 1018.9 - 0.0 - - 10 - - - -
25/07:30am 16.8 W 1 3 1018.5 - 0.0 - - 10 - - - -
25/07:00am 14.5 CALM 0 0 1017.9 - 0.0 - - 10 - - - -
25/06:30am 13.7 CALM 0 0 1017.3 - 0.0 - - 9 - - - -
25/06:22am 13.5 CALM 0 0 1017.2 - 0.0 - - 10 - - - -
25/06:00am 12.7 CALM 0 0 1017.0 - 0.0 - - 2 - - - -
25/05:51am 12.6 CALM 0 0 1016.8 - 0.0 - - 5 - - - -
25/05:43am 12.7 CALM 0 0 1016.7 - 0.0 - - 10 - - - -
25/05:30am 13.1 CALM 0 0 1016.6 - 0.0 - - 3 - - - -
25/05:00am 13.0 CALM 0 0 1016.4 - 0.0 - Partly cloudy 0.2 - - - -
25/04:30am 13.5 CALM 0 0 1016.2 - 0.0 - - 4 - - - -
25/04:00am 14.1 WNW 1 3 1015.9 - 0.0 - - 0.6 - - - -
25/03:30am 13.7 CALM 0 0 1015.7 - 0.0 - - 1 - - - -
25/03:00am 14.3 CALM 0 0 1015.8 - 0.0 - - 1 - - - -
25/02:30am 13.9 NNE 0 0 1015.9 - 0.0 - - 1 - - - -
25/02:00am 14.6 WNW 3 3 1016.1 - 0.0 - - 2 - - - -
25/01:58am 14.7 WNW 3 3 1016.1 - 0.0 - - 3 - - - -
25/01:56am 14.7 NW 3 3 1016.1 - 0.0 - - 6 - - - -
25/01:30am 15.3 CALM 0 0 1016.3 - 0.0 - - 0.3 - - - -
25/01:00am 15.3 CALM 0 0 1016.4 - 0.0 - - 0.7 - - - -
25/12:49am 15.4 CALM 0 0 1016.5 - 0.0 - - 3 - - - -
25/12:30am 16.3 CALM 0 0 1016.6 - 0.0 - - 10 - - - -
25/12:03am 15.8 NNW 0 0 1016.5 - 0.0 - - 10 - - - -
25/12:00am 16.1 NNW 0 0 1016.5 - 0.0 - - 10 - - - -
 
Date/Time
EST
Temp

°C
Wind Pressure Rain
since 9am
mm
Weather Cloud Vis
km
Sea
Height
m
Swell
Dir
 
Speed
knots
Gust
knots
hPa Trend Height
m
Period
s
Dir
24/11:30pm 16.0 CALM 0 0 1016.4 - 0.0 - - 0.7 - - - -
24/11:10pm 16.5 CALM 0 0 1016.5 - 0.0 - - 5 - - - -
24/11:00pm 17.0 N 2 3 1016.6 - 0.0 - - 10 - - - -
24/10:30pm 18.0 N 1 4 1016.7 - 0.0 - - 10 - - - -
24/10:00pm 17.6 CALM 0 0 1016.7 - 0.0 - - 10 - - - -
24/09:30pm 17.8 N 1 3 1016.7 - 0.0 - - 10 - - - -
24/09:00pm 19.5 N 3 4 1016.5 - 0.0 - - 10 - - - -
24/08:30pm 19.7 NNW 3 4 1016.2 - 0.0 - - 10 - - - -
24/08:00pm 20.4 N 5 8 1016.0 - 0.0 - - 10 - - - -
24/07:30pm 21.0 N 6 8 1015.8 - 0.0 - - 10 - - - -
24/07:00pm 21.5 N 7 9 1015.5 - 0.0 - - 10 - - - -
24/06:30pm 21.4 NNE 7 11 1015.2 - 0.0 - - 10 - - - -
24/06:00pm 21.3 NNE 5 7 1015.0 - 0.0 - - 10 - - - -
24/05:30pm 22.2 NNE 6 8 1014.8 - 0.0 - - 10 - - - -
24/05:00pm 23.4 NNE 7 9 1014.4 - 0.0 - - 10 - - - -
24/04:30pm 24.7 NE 8 12 1013.9 - 0.0 - - 10 - - - -
24/04:00pm 25.4 NE 10 12 1013.8 - 0.0 - - 10 - - - -
24/03:30pm 25.9 NE 10 15 1013.7 - 0.0 - - 10 - - - -
24/03:00pm 26.4 NE 11 15 1014.0 - 0.0 - - 10 - - - -
24/02:30pm 26.8 NE 11 14 1014.0 - 0.0 - - 10 - - - -
24/02:00pm 26.9 NE 11 14 1014.1 - 0.0 - - 10 - - - -
24/01:30pm 27.3 ENE 9 11 1014.2 - 0.0 - - 10 - - - -
24/01:00pm 27.1 ENE 7 10 1014.4 - 0.0 - - 10 - - - -
24/12:30pm 27.2 ENE 8 11 1014.6 - 0.0 - - 10 - - - -
24/12:00pm 26.9 WSW 4 6 1015.1 - 0.0 - - 10 - - - -
24/11:30am 27.2 WNW 3 6 1015.8 - 0.0 - - 10 - - - -
24/11:00am 26.3 ENE 5 7 1016.5 - 0.0 - - 10 - - - -
24/10:30am 25.9 N 5 8 1016.9 - 0.0 - - 10 - - - -
24/10:00am 25.1 N 5 7 1017.3 - 0.0 - - 10 - - - -
24/09:30am 24.5 NNE 5 7 1017.5 - 0.0 - - 10 - - - -
24/09:00am 22.9 N 4 5 1017.4 - 0.0 - - 10 - - - -
24/08:30am 21.1 N 3 5 1017.4 - 0.0 - - 10 - - - -
24/08:00am 18.9 W 1 3 1017.0 - 0.0 - - 10 - - - -
24/07:30am 16.9 CALM 0 0 1016.8 - 0.0 - - 10 - - - -
24/07:00am 15.0 CALM 0 0 1016.5 - 0.0 - - 10 - - - -
24/06:51am 14.6 CALM 0 0 1016.5 - 0.0 - - 10 - - - -
24/06:30am 13.2 CALM 0 0 1016.5 - 0.0 - - 2 - - - -
24/06:00am 13.4 CALM 0 0 1016.4 - 0.0 - - 10 - - - -
24/05:30am 13.5 CALM 0 0 1016.1 - 0.0 - - 5 - - - -
24/05:08am 13.8 CALM 0 0 1016.0 - 0.0 - - 4 - - - -
24/05:00am 14.1 CALM 0 0 1016.0 - 0.0 - - 8 - - - -
24/04:56am 14.1 CALM 0 0 1016.0 - 0.0 - - 10 - - - -
24/04:30am 14.3 CALM 0 0 1015.9 - 0.0 - - 6 - - - -
24/04:23am 13.9 CALM 0 0 1015.8 - 0.0 - - 5 - - - -
24/04:18am 13.6 CALM 0 0 1015.7 - 0.0 - - 10 - - - -
24/04:00am 13.8 CALM 0 0 1015.6 - 0.0 - - 1 - - - -
24/03:30am 14.0 CALM 0 0 1015.6 - 0.0 - - 1 - - - -
24/03:00am 14.9 CALM 0 0 1015.7 - 0.0 - - 10 - - - -
24/02:30am 15.2 W 1 3 1015.8 - 0.0 - - 1 - - - -
24/02:00am 15.9 CALM 0 0 1015.9 - 0.0 - - 8 - - - -
24/01:30am 15.4 W 2 3 1016.2 - 0.0 - - 4 - - - -
24/01:09am 15.5 W 1 3 1016.4 - 0.0 - - 4 - - - -
24/01:00am 15.5 WNW 3 3 1016.5 - 0.0 - - 10 - - - -
24/12:30am 16.6 N 3 4 1016.7 - 0.0 - - 10 - - - -
24/12:00am 17.4 N 3 4 1017.0 - 0.0 - - 10 - - - -
 
Date/Time
EST
Temp

°C
Wind Pressure Rain
since 9am
mm
Weather Cloud Vis
km
Sea
Height
m
Swell
Dir
 
Speed
knots
Gust
knots
hPa Trend Height
m
Period
s
Dir
23/11:30pm 17.4 N 4 5 1017.2 - 0.0 - - 10 - - - -
23/11:00pm 18.6 N 3 4 1017.2 - 0.0 - - 10 - - - -
23/10:30pm 19.6 N 5 6 1017.4 - 0.0 - - 10 - - - -
23/10:00pm 19.6 NNE 6 8 1017.4 - 0.0 - - 10 - - - -
23/09:30pm 19.6 N 5 6 1017.4 - 0.0 - - 10 - - - -
23/09:00pm 19.7 N 5 7 1017.5 - 0.0 - - 10 - - - -
23/08:30pm 19.9 N 5 6 1017.5 - 0.0 - - 10 - - - -
23/08:00pm 19.8 N 5 7 1017.5 - 0.0 - - 10 - - - -
23/07:30pm 19.4 N 4 5 1017.3 - 0.0 - - 10 - - - -
23/07:00pm 20.0 N 3 4 1017.2 - 0.0 - - 10 - - - -
23/06:30pm 21.1 N 4 5 1016.8 - 0.0 - - 10 - - - -
23/06:00pm 21.2 N 6 7 1016.5 - 0.0 - - 10 - - - -
23/05:30pm 21.6 NNE 6 7 1016.1 - 0.0 - - 10 - - - -
23/05:00pm 23.2 NNE 6 8 1016.0 - 0.0 - - 10 - - - -
23/04:30pm 24.3 NE 9 13 1015.9 - 0.0 - - 10 - - - -
23/04:00pm 25.2 NE 9 13 1015.9 - 0.0 - - 10 - - - -
23/03:30pm 25.6 NE 10 13 1015.9 - 0.0 - - 10 - - - -
23/03:00pm 25.8 NE 10 12 1015.9 - 0.0 - - 10 - - - -
23/02:30pm 26.0 NE 10 14 1016.0 - 0.0 - - 10 - - - -
23/02:00pm 26.2 NNE 11 14 1016.1 - 0.0 - - 10 - - - -
23/01:30pm 25.9 ENE 10 13 1016.2 - 0.0 - - 10 - - - -
23/01:00pm 25.7 E 8 12 1016.5 - 0.0 - - 10 - - - -
23/12:30pm 25.7 ESE 8 11 1017.0 - 0.0 - - 10 - - - -
23/12:00pm 25.1 SE 7 10 1017.4 - 0.0 - - 10 - - - -
23/11:30am 25.1 SSE 6 9 1017.8 - 0.0 - - 10 - - - -
23/11:00am 25.4 SE 7 10 1018.5 - 0.0 - - 10 - - - -
23/10:30am 25.8 W 1 5 1018.9 - 0.0 - - 10 - - - -
23/10:00am 24.6 WNW 5 7 1019.2 - 0.0 - - 10 - - - -
23/09:30am 23.5 NNW 3 5 1019.3 - 0.0 - - 10 - - - -
23/09:00am 22.6 N 4 5 1019.5 - 0.0 - - 10 - - - -
23/08:30am 20.9 CALM 0 0 1019.6 - 0.0 - - 10 - - - -
23/08:00am 18.4 CALM 0 0 1019.6 - 0.0 - - 10 - - - -
23/07:30am 16.2 SSW 3 4 1019.6 - 0.0 - - 10 - - - -
23/07:00am 14.0 NNW 3 4 1019.3 - 0.0 - - 10 - - - -
23/06:51am 14.1 W 2 3 1019.3 - 0.0 - - 10 - - - -
23/06:32am 12.9 CALM 0 0 1019.2 - 0.0 - - 3 - - - -
23/06:30am 13.2 CALM 0 0 1019.1 - 0.0 - - 10 - - - -
23/06:00am 13.1 CALM 0 0 1018.9 - 0.0 - - 10 - - - -
23/05:30am 13.9 CALM 0 0 1018.7 - 0.0 - - 10 - - - -
23/05:00am 13.1 NW 1 3 1018.5 - 0.0 - - 8 - - - -
23/04:30am 13.8 CALM 0 0 1018.3 - 0.0 - - 10 - - - -
23/04:00am 14.5 CALM 0 0 1018.0 - 0.0 - - 10 - - - -
23/03:30am 14.5 CALM 0 0 1018.0 - 0.0 - - 10 - - - -
23/03:29am 14.6 CALM 0 0 1018.0 - 0.0 - - 10 - - - -
23/03:07am 14.5 CALM 0 0 1017.9 - 0.0 - - 4 - - - -
23/03:00am 14.7 CALM 0 0 1017.9 - 0.0 - - 10 - - - -
23/02:30am 15.4 CALM 0 0 1018.2 - 0.0 - - 10 - - - -
23/02:00am 15.0 W 1 4 1018.3 - 0.0 - - 10 - - - -
23/01:30am 15.2 CALM 0 0 1018.7 - 0.0 - - 10 - - - -
23/01:00am 15.7 CALM 0 0 1018.7 - 0.0 - - 10 - - - -
23/12:30am 16.5 CALM 0 0 1018.6 - 0.0 - - 10 - - - -
23/12:00am 16.9 CALM 0 0 1018.7 - 0.0 - - 10 - - - -
 
Date/Time
EST
Temp

°C
Wind Pressure Rain
since 9am
mm
Weather Cloud Vis
km
Sea
Height
m
Swell
Dir
 
Speed
knots
Gust
knots
hPa Trend Height
m
Period
s
Dir
22/11:30pm 18.9 N 4 6 1018.9 - 0.0 - - 10 - - - -
22/11:00pm 19.0 N 5 6 1019.1 - 0.0 - - 10 - - - -
22/10:30pm 19.2 N 6 7 1019.1 - 0.0 - - 10 - - - -
22/10:00pm 19.5 N 5 7 1019.2 - 0.0 - - 10 - - - -
22/09:30pm 19.5 N 5 7 1019.3 - 0.0 - - 10 - - - -
22/09:00pm 19.9 N 6 8 1019.2 - 0.0 - - 10 - - - -
22/08:30pm 20.1 N 6 8 1019.4 - 0.0 - - 10 - - - -
22/08:00pm 20.2 N 5 7 1019.4 - 0.0 - - 10 - - - -
22/07:30pm 20.6 N 5 6 1019.2 - 0.0 - - 10 - - - -
22/07:00pm 21.1 N 6 10 1019.1 - 0.0 - - 10 - - - -
22/06:30pm 21.5 NNE 8 11 1018.9 - 0.0 - - 10 - - - -
22/06:00pm 21.8 NNE 8 12 1018.7 - 0.0 - - 10 - - - -
22/05:30pm 22.2 NNE 8 11 1018.5 - 0.0 - - 10 - - - -
22/05:00pm 23.0 NNE 8 11 1018.3 - 0.0 - - 10 - - - -
22/04:30pm 23.7 NNE 9 12 1018.3 - 0.0 - - 10 - - - -
22/04:00pm 24.8 NNE 11 16 1018.2 - 0.0 - - 10 - - - -
22/03:30pm 25.0 NNE 11 17 1018.2 - 0.0 - - 10 - - - -
22/03:00pm 25.5 NNE 11 16 1018.5 - 0.0 - - 10 - - - -
22/02:30pm 25.7 NNE 10 17 1018.3 - 0.0 - - 10 - - - -
22/02:00pm 25.9 NE 12 17 1018.2 - 0.0 - - 10 - - - -
22/01:30pm 26.4 NE 13 18 1018.5 - 0.0 - - 10 - - - -

Other Formats:

Comma delimited format used in spreadsheet applications
http://www.bom.gov.au/fwo/IDN60701/IDN60701.94596.axf

JavaScript Object Notation format (JSON) in row-major order
http://www.bom.gov.au/fwo/IDN60701/IDN60701.94596.json